Main page
METAR-TAF:

METAR-TAF

Airports :

Warton Aerodrome

Preston, England

latitude: 53-44-42N, longitude: 2-53-02W, elevation: 17 m

Current weather observation

The report was made 25 minutes ago, at 05:20 UTC
Wind 3 kt from the East/Southeast, varying between East and South/Southeast
Temperature 14°C
Humidity 94%
Pressure 1018 hPa
Visibility: 9000 m
Few clouds at a height of 4000 ft

METAR: EGNO 180520Z 12003KT 090V150 9000 FEW040 14/13 Q1018

Time: 06:45 (05:45 UTC)

Forecast

The report was made 15 hours and 48 minutes ago, at 13:57 UTC
Forecast valid from 17 at 15 UTC to 17 at 18 UTC
Wind 5 kt from the West/Southwest
Visibility 10 km or more
Scattered clouds at a height of 3000 ft

TAF: EGNO 171357Z 1715/1718 25005KT 9999 SCT030

Weather observations and forecasts of more than 4000 airports (METAR and TAF reports).

The available stations are represented by yellow and red dots on the map.

Hover mouse over dot to see the name of the station.

Then click to see weather observations and forecasts.

To change the map : click on the green buttons with a black cross to zoom in, on the green button with a dash to zoom out, or on the green arrows for adjacent maps.


METAR-TAF: